Terminal Aerodrome Forecast
Issued by NWS

Home | Current Version | Previous Version | Graphics & Text | Print | Product List | Glossary On
Versions: 1 2 3 4 5 6 7 8 9 10 11 12 13 14 15 16 17 18 19 20 21 22 23
000
FTUS43 KICT 200059 AAA
TAFSLN
TAF AMD
KSLN 200059Z 2001/2024 17017G22KT P6SM SKC
     FM200300 18017G22KT P6SM SKC WS020/19052KT
     FM201000 23009KT P6SM SKC
     FM201200 33013KT P6SM SKC
     FM201500 36017KT P6SM SKC=

USA.gov is the U.S. government's official web portal to all federal, state and local government web resources and services.